createdAt,value
2019-06-08T03:02:51.523Z,78.80
2019-06-08T03:05:20.812Z,80.60
2019-06-08T03:07:52.119Z,80.70
2019-06-08T03:10:21.491Z,81.40
2019-06-08T03:12:54.046Z,81.70
2019-06-08T03:15:33.803Z,82.00
2019-06-08T03:18:01.883Z,81.30
2019-06-08T03:20:33.463Z,79.20
2019-06-08T03:23:02.926Z,81.00
2019-06-08T03:25:35.300Z,80.40
2019-06-08T03:28:03.191Z,80.50
2019-06-08T03:30:37.177Z,80.20
2019-06-08T03:33:03.536Z,79.10
2019-06-08T03:35:35.998Z,77.80
2019-06-08T03:38:03.819Z,76.40
2019-06-08T03:40:33.910Z,74.70
2019-06-08T03:43:03.283Z,73.40
2019-06-08T03:45:34.180Z,72.50
2019-06-08T03:48:03.646Z,71.70
2019-06-08T03:50:32.929Z,71.60
2019-06-08T03:53:02.232Z,73.00
2019-06-08T03:55:31.597Z,71.70
2019-06-08T03:58:00.890Z,69.90
2019-06-08T04:00:30.178Z,70.90
2019-06-08T04:02:59.704Z,71.00
2019-06-08T04:05:28.991Z,71.20
2019-06-08T04:07:58.282Z,68.80
2019-06-08T04:10:27.580Z,70.10
2019-06-08T04:12:56.881Z,71.90
2019-06-08T04:15:26.179Z,68.50
2019-06-08T04:17:55.811Z,69.10
2019-06-08T04:20:25.098Z,68.20
2019-06-08T04:22:54.720Z,68.30
2019-06-08T04:25:24.015Z,67.70
2019-06-08T04:27:53.300Z,66.50
2019-06-08T04:30:23.230Z,67.60
2019-06-08T04:32:52.847Z,67.90
2019-06-08T04:35:22.274Z,67.30
2019-06-08T04:37:51.567Z,67.80
2019-06-08T04:40:20.863Z,66.30
2019-06-08T04:42:51.103Z,68.10
2019-06-08T04:45:21.524Z,67.90
2019-06-08T04:47:51.119Z,66.20
2019-06-08T04:50:23.485Z,66.80
2019-06-08T04:52:51.403Z,65.80
2019-06-08T04:55:20.688Z,65.40
2019-06-08T04:57:50.839Z,64.30
2019-06-08T05:00:20.638Z,63.70
2019-06-08T05:02:51.118Z,62.60
2019-06-08T05:05:20.725Z,63.10
2019-06-08T05:07:50.473Z,63.70
2019-06-08T05:10:20.012Z,63.80
2019-06-08T05:12:50.219Z,63.10
2019-06-08T05:15:19.819Z,62.60
2019-06-08T05:17:49.672Z,63.30
2019-06-08T05:20:19.971Z,64.20
2019-06-08T05:22:49.831Z,63.80
2019-06-08T05:25:19.203Z,62.90
2019-06-08T05:27:49.595Z,62.20
2019-06-08T05:30:19.167Z,60.40
2019-06-08T05:32:49.635Z,60.00
2019-06-08T05:35:19.079Z,61.20
2019-06-08T05:37:49.705Z,60.00
2019-06-08T05:40:19.267Z,62.70
2019-06-08T05:42:49.840Z,60.10
2019-06-08T05:45:19.982Z,59.70
2019-06-08T05:47:50.119Z,59.20
2019-06-08T05:50:20.569Z,60.80
2019-06-08T05:52:50.413Z,59.80
2019-06-08T05:55:19.787Z,60.00
2019-06-08T05:57:50.557Z,59.20
2019-06-08T06:00:21.096Z,59.20
2019-06-08T06:02:50.987Z,59.70
2019-06-08T06:05:20.622Z,60.50
2019-06-08T06:07:51.223Z,60.00
2019-06-08T06:10:20.717Z,60.40
2019-06-08T06:12:51.187Z,60.90
2019-06-08T06:15:21.551Z,60.70
2019-06-08T06:17:51.608Z,61.60
2019-06-08T06:20:21.161Z,61.10
2019-06-08T06:22:52.546Z,60.10
2019-06-08T06:25:21.793Z,60.30
2019-06-08T06:27:51.812Z,59.70
2019-06-08T06:30:21.244Z,58.50
2019-06-08T06:32:51.844Z,58.00
2019-06-08T06:35:21.259Z,59.00
2019-06-08T06:37:52.082Z,58.10
2019-06-08T06:40:21.667Z,58.60
2019-06-08T06:42:52.364Z,59.20
2019-06-08T06:45:21.741Z,58.90
2019-06-08T06:47:52.544Z,58.60
2019-06-08T06:50:22.098Z,59.50
2019-06-08T06:52:52.842Z,57.60
2019-06-08T06:55:25.208Z,58.40
2019-06-08T06:57:53.635Z,57.60
2019-06-08T07:00:31.259Z,57.00
2019-06-08T07:03:01.386Z,57.60
2019-06-08T07:05:30.687Z,56.50
2019-06-08T07:07:59.987Z,55.50
2019-06-08T07:10:29.547Z,55.50
2019-06-08T07:12:58.938Z,57.00
2019-06-08T07:15:29.153Z,56.10
2019-06-08T07:17:58.782Z,56.90
2019-06-08T07:20:28.174Z,56.10
2019-06-08T07:22:57.470Z,56.00
2019-06-08T07:25:26.755Z,55.00
2019-06-08T07:27:57.120Z,54.40
2019-06-08T07:30:26.470Z,54.40
2019-06-08T07:32:55.811Z,55.40
2019-06-08T07:35:25.095Z,56.30
2019-06-08T07:37:55.518Z,55.50
2019-06-08T07:40:24.982Z,54.50
2019-06-08T07:42:55.273Z,55.30
2019-06-08T07:45:25.494Z,55.10
2019-06-08T07:47:56.029Z,55.70
2019-06-08T07:50:25.416Z,55.80
2019-06-08T07:52:54.725Z,57.40
2019-06-08T07:55:23.998Z,55.90
2019-06-08T07:57:54.043Z,55.80
2019-06-08T08:00:23.421Z,54.50
2019-06-08T08:02:54.236Z,55.20
2019-06-08T08:05:23.638Z,54.60
2019-06-08T08:07:54.743Z,54.30
2019-06-08T08:10:24.158Z,53.00
2019-06-08T08:12:54.668Z,53.00
2019-06-08T08:15:24.176Z,54.20
2019-06-08T08:17:53.843Z,53.40
2019-06-08T08:20:23.338Z,54.10
2019-06-08T08:22:56.499Z,53.40
2019-06-08T08:25:24.654Z,53.50
2019-06-08T08:27:55.287Z,52.30
2019-06-08T08:30:25.275Z,50.60
2019-06-08T08:32:56.218Z,52.50
2019-06-08T08:35:27.877Z,53.20
2019-06-08T08:38:02.233Z,51.30
2019-06-08T08:40:28.276Z,52.40
2019-06-08T08:42:58.722Z,52.90
2019-06-08T08:45:28.967Z,53.10
2019-06-08T08:48:14.472Z,54.40
2019-06-08T08:50:29.535Z,54.10
2019-06-08T08:53:01.194Z,54.60
2019-06-08T08:55:30.066Z,54.30
2019-06-08T08:58:00.890Z,53.30
2019-06-08T09:00:30.429Z,53.20
2019-06-08T09:03:19.345Z,53.90
2019-06-08T09:05:31.780Z,53.70
2019-06-08T09:08:02.624Z,52.40
2019-06-08T09:10:32.328Z,51.80
2019-06-08T09:13:04.428Z,52.40
2019-06-08T09:15:32.612Z,52.90
2019-06-08T09:18:03.670Z,51.00
2019-06-08T09:20:32.891Z,50.40
2019-06-08T09:23:11.519Z,50.80
2019-06-08T09:25:33.187Z,51.80
2019-06-08T09:28:04.675Z,50.20
2019-06-08T09:30:33.763Z,51.50
2019-06-08T09:33:04.323Z,52.10
2019-06-08T09:35:33.900Z,53.30
2019-06-08T09:38:04.954Z,53.50
2019-06-08T09:40:34.185Z,52.70
2019-06-08T09:43:09.339Z,52.30
2019-06-08T09:45:34.934Z,51.20
2019-06-08T09:48:05.661Z,51.40
2019-06-08T09:50:35.413Z,51.70
2019-06-08T09:53:20.109Z,50.50
2019-06-08T09:55:38.158Z,49.80
2019-06-08T09:58:11.495Z,48.90
2019-06-08T10:00:38.284Z,48.60
2019-06-08T10:03:09.461Z,48.00
2019-06-08T10:05:38.915Z,48.00
2019-06-08T10:08:09.441Z,49.00
2019-06-08T10:10:39.093Z,49.30
2019-06-08T10:13:09.784Z,47.70
2019-06-08T10:15:39.354Z,48.80
2019-06-08T10:18:08.959Z,48.40
2019-06-08T10:20:39.545Z,49.00
2019-06-08T10:23:27.094Z,47.80
2019-06-08T10:25:40.167Z,48.90
2019-06-08T10:28:14.027Z,47.70
2019-06-08T10:30:40.443Z,48.10
2019-06-08T10:33:10.265Z,46.70
2019-06-08T10:35:39.525Z,46.50
2019-06-08T10:38:11.895Z,47.60
2019-06-08T10:41:04.835Z,47.30
2019-06-08T10:43:29.191Z,47.90
2019-06-08T10:46:06.830Z,47.60
2019-06-08T10:48:31.799Z,48.00
2019-06-08T10:51:03.743Z,47.50
2019-06-08T10:53:45.168Z,48.10
2019-06-08T10:56:05.620Z,46.80
2019-06-08T10:58:35.774Z,46.50
2019-06-08T11:01:10.474Z,46.90
2019-06-08T11:03:38.690Z,46.50
2019-06-08T11:06:12.859Z,46.60
2019-06-08T11:08:39.743Z,45.00
2019-06-08T11:11:11.747Z,46.30
2019-06-08T11:13:40.099Z,46.30
2019-06-08T11:16:12.987Z,46.10
2019-06-08T11:18:40.898Z,46.20
2019-06-08T11:21:12.633Z,45.50
2019-06-08T11:23:41.683Z,44.90
2019-06-08T11:26:19.166Z,44.90
2019-06-08T11:28:42.027Z,44.80
2019-06-08T11:31:15.709Z,44.80
2019-06-08T11:33:42.730Z,45.20
2019-06-08T11:36:14.772Z,45.50
2019-06-08T11:38:42.998Z,45.00
2019-06-08T11:41:13.725Z,45.40
2019-06-08T11:43:44.336Z,45.60
2019-06-08T11:46:18.102Z,44.50
2019-06-08T11:48:45.726Z,46.30
2019-06-08T11:51:16.664Z,45.40
2019-06-08T11:53:49.956Z,44.90
2019-06-08T11:56:18.232Z,45.90
2019-06-08T11:58:48.656Z,43.90
2019-06-08T12:01:18.635Z,44.10
2019-06-08T12:03:48.472Z,44.00
2019-06-08T12:06:18.509Z,44.40
2019-06-08T12:08:48.015Z,44.70
2019-06-08T12:11:19.730Z,43.60
2019-06-08T12:13:48.299Z,44.30
2019-06-08T12:16:21.470Z,43.60
2019-06-08T12:18:49.354Z,42.50
2019-06-08T12:21:19.056Z,42.80
2019-06-08T12:23:48.343Z,42.30
2019-06-08T12:26:17.642Z,39.00
2019-06-08T12:28:48.689Z,39.10
2019-06-08T12:31:22.269Z,39.00
2019-06-08T12:33:49.119Z,40.50
2019-06-08T12:36:20.566Z,40.30
2019-06-08T12:38:50.515Z,41.80
2019-06-08T12:41:19.803Z,41.10
2019-06-08T12:43:49.102Z,39.90
2019-06-08T12:46:19.843Z,40.00
2019-06-08T12:48:50.002Z,39.40
2019-06-08T12:51:21.434Z,36.30
2019-06-08T12:53:51.747Z,37.40
2019-06-08T12:56:24.054Z,36.90
2019-06-08T12:58:52.103Z,38.70
2019-06-08T13:01:21.711Z,38.20
2019-06-08T13:03:50.999Z,37.40
2019-06-08T13:06:20.302Z,38.60
2019-06-08T13:08:49.593Z,38.40
2019-06-08T13:11:21.112Z,39.40
2019-06-08T13:13:49.945Z,37.10
2019-06-08T13:16:23.713Z,37.60
2019-06-08T13:18:50.395Z,36.90
2019-06-08T13:21:33.406Z,37.90
2019-06-08T13:23:51.155Z,37.90
2019-06-08T13:26:27.937Z,37.20
2019-06-08T13:28:53.707Z,37.30
2019-06-08T13:31:24.770Z,38.50
2019-06-08T13:33:54.140Z,38.80
2019-06-08T13:36:26.282Z,38.60
2019-06-08T13:38:54.602Z,36.80
2019-06-08T13:41:26.490Z,37.60
2019-06-08T13:43:55.025Z,39.80
2019-06-08T13:46:24.601Z,37.70
2019-06-08T13:48:53.924Z,36.10
2019-06-08T13:51:24.214Z,36.80
2019-06-08T13:53:53.834Z,38.50
2019-06-08T13:56:24.012Z,38.50
2019-06-08T13:58:53.770Z,38.60
2019-06-08T14:01:23.828Z,39.70
2019-06-08T14:03:53.843Z,39.70
2019-06-08T14:06:23.731Z,40.70
2019-06-08T14:08:54.275Z,40.50
2019-06-08T14:11:25.025Z,41.20
2019-06-08T14:13:54.840Z,39.20
2019-06-08T14:16:25.364Z,38.40
2019-06-08T14:18:55.408Z,38.80
2019-06-08T14:21:33.913Z,39.90
2019-06-08T14:23:55.872Z,40.80
2019-06-08T14:26:25.969Z,41.50
2019-06-08T14:28:55.516Z,41.70
2019-06-08T14:31:25.599Z,39.40
2019-06-08T14:33:55.768Z,36.90
2019-06-08T14:36:26.621Z,37.80
2019-06-08T14:39:01.794Z,38.50
2019-06-08T14:41:29.819Z,38.10
2019-06-08T14:43:58.725Z,39.40
2019-06-08T14:46:28.776Z,39.60
2019-06-08T14:48:58.702Z,40.10
2019-06-08T14:51:47.775Z,39.30
2019-06-08T14:54:22.465Z,37.90
2019-06-08T14:56:49.904Z,35.60
2019-06-08T14:59:20.588Z,36.60
2019-06-08T15:01:50.566Z,38.20
2019-06-08T15:04:23.884Z,36.20
2019-06-08T15:06:50.851Z,34.70
2019-06-08T15:09:21.259Z,30.80
2019-06-08T15:11:50.714Z,30.10
2019-06-08T15:14:20.011Z,31.30
2019-06-08T15:16:49.544Z,33.80
2019-06-08T15:19:20.143Z,35.70
2019-06-08T15:21:49.530Z,37.10
2019-06-08T15:24:18.846Z,35.70
2019-06-08T15:26:48.702Z,32.70
2019-06-08T15:29:18.458Z,31.40
2019-06-08T15:31:48.756Z,29.00
2019-06-08T15:34:18.464Z,30.00
2019-06-08T15:36:48.049Z,29.10
2019-06-08T15:39:17.993Z,28.90
2019-06-08T15:41:48.798Z,28.70
2019-06-08T15:44:21.363Z,28.60
2019-06-08T15:46:49.296Z,29.90
2019-06-08T15:49:18.720Z,32.20
2019-06-08T15:51:48.671Z,33.90
2019-06-08T15:54:18.187Z,35.50
2019-06-08T15:56:51.771Z,36.30
2019-06-08T15:59:18.458Z,35.40
2019-06-08T16:01:47.765Z,34.80
2019-06-08T16:04:17.051Z,33.20
2019-06-08T16:06:46.664Z,32.20
2019-06-08T16:09:16.231Z,33.30
2019-06-08T16:11:45.518Z,32.50
2019-06-08T16:14:14.819Z,33.80
2019-06-08T16:16:44.104Z,34.90
2019-06-08T16:19:13.395Z,35.90
2019-06-08T16:21:42.691Z,35.60
2019-06-08T16:24:11.991Z,34.00
2019-06-08T16:26:52.961Z,33.70
2019-06-08T16:29:12.270Z,34.60
2019-06-08T16:31:41.562Z,33.60
2019-06-08T16:34:10.851Z,35.10
2019-06-08T16:36:41.123Z,37.30
2019-06-08T16:39:10.728Z,37.80
2019-06-08T16:41:40.491Z,38.10
2019-06-08T16:44:09.790Z,38.00
2019-06-08T16:46:39.088Z,36.30
2019-06-08T16:49:09.055Z,37.00
2019-06-08T16:51:39.807Z,35.40
2019-06-08T16:54:09.561Z,36.40
2019-06-08T16:56:40.217Z,37.50
2019-06-08T16:59:09.623Z,38.10
2019-06-08T17:01:39.260Z,38.80
2019-06-08T17:04:08.683Z,39.40
2019-06-08T17:06:37.992Z,40.10
2019-06-08T17:09:08.099Z,40.90
2019-06-08T17:11:37.691Z,40.60
2019-06-08T17:14:06.994Z,39.70
2019-06-08T17:16:36.459Z,39.70
2019-06-08T17:19:05.946Z,38.60
2019-06-08T17:21:36.268Z,38.90
2019-06-08T17:24:05.724Z,38.90
2019-06-08T17:26:35.085Z,39.80
2019-06-08T17:29:04.648Z,40.70
2019-06-08T17:31:35.153Z,41.00
2019-06-08T17:34:05.195Z,41.10
2019-06-08T17:36:34.624Z,41.30
2019-06-08T17:39:05.799Z,41.60
2019-06-08T17:41:36.175Z,41.90
2019-06-08T17:44:06.129Z,41.50
2019-06-08T17:46:36.523Z,41.50
2019-06-08T17:49:05.912Z,42.00
2019-06-08T17:51:35.207Z,41.90
2019-06-08T17:54:04.666Z,42.00
2019-06-08T17:56:35.146Z,42.60
2019-06-08T17:59:04.978Z,42.20
2019-06-08T18:01:35.828Z,42.10
2019-06-08T18:04:05.326Z,43.00
2019-06-08T18:06:36.435Z,42.60
2019-06-08T18:09:07.901Z,42.50
2019-06-08T18:11:40.494Z,41.60
2019-06-08T18:14:09.691Z,41.60
2019-06-08T18:16:41.991Z,42.70
2019-06-08T18:19:28.326Z,42.60
2019-06-08T18:22:03.981Z,43.40
2019-06-08T18:24:29.901Z,43.60
2019-06-08T18:26:59.306Z,45.10
2019-06-08T18:29:28.855Z,44.90
2019-06-08T18:31:58.475Z,43.90
2019-06-08T18:34:29.035Z,44.60
2019-06-08T18:36:58.384Z,44.60
2019-06-08T18:39:29.024Z,44.80
2019-06-08T18:41:59.220Z,44.80
2019-06-08T18:44:28.931Z,44.70
2019-06-08T18:46:58.503Z,44.00
2019-06-08T18:49:28.903Z,44.30
2019-06-08T18:51:58.508Z,44.00
2019-06-08T18:54:29.132Z,44.40
2019-06-08T18:56:58.432Z,44.80
2019-06-08T18:59:28.611Z,44.30
2019-06-08T19:01:59.142Z,44.80
2019-06-08T19:04:30.961Z,44.80
2019-06-08T19:07:01.809Z,44.70
2019-06-08T19:09:31.946Z,44.40
2019-06-08T19:12:01.243Z,44.30
2019-06-08T19:14:30.535Z,45.00
2019-06-08T19:16:59.822Z,45.30
2019-06-08T19:19:31.456Z,45.20
2019-06-08T19:22:00.328Z,45.80
2019-06-08T19:24:29.615Z,46.10
2019-06-08T19:26:58.903Z,46.70
2019-06-08T19:29:28.363Z,46.50
2019-06-08T19:32:00.462Z,46.70
2019-06-08T19:34:33.056Z,46.90
2019-06-08T19:36:59.922Z,46.90
2019-06-08T19:39:29.229Z,47.10
2019-06-08T19:41:59.807Z,47.20
2019-06-08T19:44:29.545Z,48.40
2019-06-08T19:46:58.844Z,48.30
2019-06-08T19:49:29.444Z,49.70
2019-06-08T19:51:58.759Z,50.60
2019-06-08T19:54:28.164Z,51.40
2019-06-08T19:56:57.763Z,51.60
2019-06-08T19:59:27.538Z,52.10
2019-06-08T20:01:59.873Z,52.50
2019-06-08T20:04:29.386Z,53.10
2019-06-08T20:07:00.644Z,53.60
2019-06-08T20:09:29.689Z,54.20
2019-06-08T20:12:00.186Z,54.40
2019-06-08T20:14:30.040Z,55.20
2019-06-08T20:16:59.647Z,55.30
2019-06-08T20:19:29.258Z,56.00
2019-06-08T20:21:58.558Z,56.50
2019-06-08T20:24:28.815Z,57.00
2019-06-08T20:26:58.351Z,57.70
2019-06-08T20:29:28.456Z,57.90
2019-06-08T20:31:58.423Z,58.90
2019-06-08T20:34:27.922Z,58.70
2019-06-08T20:36:59.374Z,58.60
2019-06-08T20:39:28.445Z,59.00
2019-06-08T20:41:58.691Z,59.20
2019-06-08T20:44:30.298Z,59.20
2019-06-08T20:46:59.641Z,59.70
2019-06-08T20:49:28.942Z,59.70
2019-06-08T20:52:00.426Z,61.00
2019-06-08T20:54:29.883Z,60.30
2019-06-08T20:56:59.432Z,61.30
2019-06-08T20:59:33.695Z,61.50
2019-06-08T21:02:00.033Z,62.00
2019-06-08T21:04:29.322Z,62.50
2019-06-08T21:06:58.611Z,62.80
2019-06-08T21:09:28.199Z,63.10
2019-06-08T21:11:58.728Z,63.60
2019-06-08T21:14:28.265Z,64.60
2019-06-08T21:16:58.520Z,65.20
2019-06-08T21:19:28.309Z,65.20
2019-06-08T21:21:59.502Z,65.40
2019-06-08T21:24:28.994Z,66.50
2019-06-08T21:27:00.511Z,67.10
2019-06-08T21:29:47.457Z,66.80
2019-06-08T21:32:08.152Z,66.90
2019-06-08T21:34:38.018Z,67.10
2019-06-08T21:37:09.167Z,66.40
2019-06-08T21:39:39.074Z,66.30
2019-06-08T21:42:08.603Z,66.80
2019-06-08T21:44:38.062Z,68.00
2019-06-08T21:47:07.905Z,68.10
2019-06-08T21:49:38.390Z,68.60
2019-06-08T21:52:08.135Z,68.90
2019-06-08T21:54:37.696Z,68.80
2019-06-08T21:57:09.530Z,68.70
2019-06-08T21:59:37.985Z,68.70
2019-06-08T22:02:08.252Z,69.50
2019-06-08T22:04:38.027Z,70.70
2019-06-08T22:07:07.320Z,70.90
2019-06-08T22:09:37.387Z,71.20
2019-06-08T22:12:07.241Z,70.40
2019-06-08T22:14:37.813Z,70.40
2019-06-08T22:17:08.079Z,70.80
2019-06-08T22:19:38.024Z,72.00
2019-06-08T22:22:08.538Z,72.60
2019-06-08T22:24:38.407Z,73.20
2019-06-08T22:27:08.051Z,73.60
2019-06-08T22:29:38.310Z,74.20
2019-06-08T22:32:07.853Z,74.60
2019-06-08T22:34:37.313Z,74.50
2019-06-08T22:37:08.585Z,74.40
2019-06-08T22:39:38.107Z,74.00
2019-06-08T22:42:08.382Z,74.00
2019-06-08T22:44:37.867Z,74.20
2019-06-08T22:47:08.086Z,74.60
2019-06-08T22:49:38.895Z,75.00
2019-06-08T22:52:08.422Z,74.50
2019-06-08T22:54:38.371Z,75.30
2019-06-08T22:57:08.291Z,75.70
2019-06-08T22:59:37.700Z,75.20
2019-06-08T23:02:09.095Z,75.90
2019-06-08T23:04:37.998Z,76.60
2019-06-08T23:07:10.820Z,76.80
2019-06-08T23:09:38.274Z,77.40
2019-06-08T23:12:09.413Z,77.50
2019-06-08T23:14:39.639Z,77.80
2019-06-08T23:17:09.895Z,78.40
2019-06-08T23:19:39.182Z,78.60
2019-06-08T23:22:08.560Z,78.90
2019-06-08T23:24:38.353Z,79.10
2019-06-08T23:27:07.869Z,78.70
2019-06-08T23:29:38.160Z,79.50
2019-06-08T23:32:11.442Z,80.40
2019-06-08T23:34:38.611Z,80.40
2019-06-08T23:37:12.445Z,81.30
2019-06-08T23:39:39.211Z,80.70
2019-06-08T23:42:08.504Z,80.50
2019-06-08T23:44:37.877Z,80.70
2019-06-08T23:47:08.166Z,80.70
2019-06-08T23:49:38.609Z,80.80
2019-06-08T23:52:10.498Z,81.20
2019-06-08T23:54:38.885Z,81.30
2019-06-08T23:57:10.627Z,81.90
2019-06-08T23:59:39.158Z,82.10
